createdAt,value
2022-09-04T00:02:25.033Z,3.27
2022-09-04T00:05:02.031Z,4.50
2022-09-04T00:07:39.347Z,4.53
2022-09-04T00:10:16.343Z,4.13
2022-09-04T00:12:51.560Z,3.70
2022-09-04T00:15:25.063Z,3.13
2022-09-04T00:18:00.013Z,3.23
2022-09-04T00:20:37.449Z,4.10
2022-09-04T00:23:15.170Z,3.20
2022-09-04T00:25:52.292Z,4.33
2022-09-04T00:28:33.693Z,5.40
2022-09-04T00:31:13.490Z,3.33
2022-09-04T00:33:52.864Z,3.27
2022-09-04T00:36:25.168Z,3.50
2022-09-04T00:38:58.718Z,4.00
2022-09-04T00:41:30.921Z,5.10
2022-09-04T00:44:40.660Z,3.43
2022-09-04T00:47:30.647Z,4.13
2022-09-04T00:50:23.111Z,3.87
2022-09-04T00:53:06.373Z,3.90
2022-09-04T00:56:03.999Z,4.30
2022-09-04T00:58:49.376Z,5.00
2022-09-04T01:01:24.663Z,3.90
2022-09-04T01:04:16.165Z,6.00
2022-09-04T01:06:54.227Z,3.77
2022-09-04T01:09:37.443Z,10.63
2022-09-04T01:12:20.904Z,6.60
2022-09-04T01:14:55.966Z,4.37
2022-09-04T01:17:32.899Z,3.33
2022-09-04T01:20:11.095Z,4.13
2022-09-04T01:23:21.743Z,4.47
2022-09-04T01:26:09.071Z,4.57
2022-09-04T01:28:47.768Z,5.70
2022-09-04T01:31:26.507Z,4.03
2022-09-04T01:34:07.204Z,3.93
2022-09-04T01:36:42.747Z,6.50
2022-09-04T01:39:11.016Z,4.27
2022-09-04T01:41:46.395Z,4.33
2022-09-04T01:44:14.528Z,4.57
2022-09-04T01:47:01.603Z,4.13
2022-09-04T01:49:35.599Z,5.93
2022-09-04T01:52:21.735Z,6.67
2022-09-04T01:54:57.094Z,5.70
2022-09-04T01:57:44.553Z,5.97
2022-09-04T02:00:14.844Z,4.80
2022-09-04T02:02:57.374Z,5.40
2022-09-04T02:05:35.170Z,5.40
2022-09-04T02:08:21.300Z,10.67
2022-09-04T02:10:54.235Z,5.30
2022-09-04T02:13:30.379Z,5.27
2022-09-04T02:16:08.277Z,4.20
2022-09-04T02:18:45.529Z,8.73
2022-09-04T02:21:26.405Z,4.90
2022-09-04T02:24:06.164Z,8.47
2022-09-04T02:26:41.652Z,5.30
2022-09-04T02:29:21.250Z,6.17
2022-09-04T02:31:57.008Z,5.33
2022-09-04T02:34:32.566Z,5.60
2022-09-04T02:37:08.124Z,6.97
2022-09-04T02:39:56.268Z,7.17
2022-09-04T02:42:32.267Z,6.37
2022-09-04T02:45:13.959Z,6.90
2022-09-04T02:47:49.966Z,5.77
2022-09-04T02:50:30.144Z,7.53
2022-09-04T02:53:08.504Z,8.93
2022-09-04T02:55:59.241Z,7.90
2022-09-04T02:58:39.621Z,6.97
2022-09-04T03:01:15.025Z,8.40
2022-09-04T03:03:48.643Z,7.13
2022-09-04T03:06:22.798Z,7.10
2022-09-04T03:08:57.103Z,9.57
2022-09-04T03:11:34.428Z,6.60
2022-09-04T03:14:09.788Z,9.43
2022-09-04T03:16:44.217Z,6.10
2022-09-04T03:19:20.078Z,6.17
2022-09-04T03:21:53.590Z,7.77
2022-09-04T03:24:26.830Z,7.70
2022-09-04T03:26:57.619Z,6.33
2022-09-04T03:29:35.894Z,5.70
2022-09-04T03:32:16.708Z,6.23
2022-09-04T03:34:52.278Z,6.80
2022-09-04T03:37:38.518Z,8.07
2022-09-04T03:40:29.585Z,7.33
2022-09-04T03:43:10.169Z,5.60
2022-09-04T03:45:48.253Z,5.00
2022-09-04T03:48:35.429Z,9.20
2022-09-04T03:51:16.082Z,5.87
2022-09-04T03:53:46.776Z,5.67
2022-09-04T03:56:41.288Z,6.50
2022-09-04T03:59:15.016Z,13.50
2022-09-04T04:01:50.476Z,6.37
2022-09-04T04:04:53.415Z,7.93
2022-09-04T04:07:35.455Z,8.97
2022-09-04T04:10:19.538Z,6.47
2022-09-04T04:13:17.250Z,7.43
2022-09-04T04:15:58.446Z,5.90
2022-09-04T04:18:44.733Z,7.90
2022-09-04T04:21:27.560Z,7.63
2022-09-04T04:24:17.708Z,22.03
2022-09-04T04:27:02.219Z,5.67
2022-09-04T04:29:50.807Z,8.93
2022-09-04T04:32:33.771Z,6.53
2022-09-04T04:35:21.522Z,7.20
2022-09-04T04:38:18.207Z,6.93
2022-09-04T04:41:10.926Z,7.20
2022-09-04T04:43:52.059Z,7.93
2022-09-04T04:46:27.158Z,8.47
2022-09-04T04:49:19.557Z,8.10
2022-09-04T04:52:18.403Z,7.50
2022-09-04T04:55:06.321Z,10.93
2022-09-04T04:57:46.391Z,8.90
2022-09-04T05:00:25.278Z,7.67
2022-09-04T05:03:03.324Z,9.07
2022-09-04T05:05:53.934Z,7.87
2022-09-04T05:08:30.403Z,7.90
2022-09-04T05:11:06.316Z,9.73
2022-09-04T05:13:45.045Z,11.40
2022-09-04T05:16:24.119Z,8.60
2022-09-04T05:18:59.810Z,9.03
2022-09-04T05:21:37.314Z,8.50
2022-09-04T05:24:11.764Z,8.53
2022-09-04T05:26:48.335Z,9.00
2022-09-04T05:29:27.215Z,11.70
2022-09-04T05:32:02.492Z,10.80
2022-09-04T05:34:37.988Z,8.50
2022-09-04T05:37:14.835Z,9.90
2022-09-04T05:39:57.291Z,8.90
2022-09-04T05:42:45.439Z,9.07
2022-09-04T05:45:24.411Z,10.07
2022-09-04T05:48:03.055Z,6.83
2022-09-04T05:50:45.710Z,8.53
2022-09-04T05:53:42.080Z,10.70
2022-09-04T05:56:40.319Z,8.57
2022-09-04T05:59:34.770Z,6.73
2022-09-04T06:02:28.791Z,11.00
2022-09-04T06:05:19.092Z,10.10
2022-09-04T06:07:56.347Z,7.20
2022-09-04T06:10:35.172Z,8.13
2022-09-04T06:13:30.693Z,7.53
2022-09-04T06:16:18.936Z,7.70
2022-09-04T06:19:04.179Z,7.10
2022-09-04T06:22:27.591Z,7.33
2022-09-04T06:25:26.597Z,8.80
2022-09-04T06:28:24.724Z,8.27
2022-09-04T06:31:01.371Z,6.00
2022-09-04T06:33:44.722Z,6.37
2022-09-04T06:36:28.015Z,7.53
2022-09-04T06:39:09.741Z,4.70
2022-09-04T06:41:56.405Z,6.60
2022-09-04T06:44:38.230Z,5.50
2022-09-04T06:47:17.680Z,7.27
2022-09-04T06:50:11.968Z,7.30
2022-09-04T06:52:48.407Z,7.80
2022-09-04T06:55:24.791Z,6.63
2022-09-04T06:58:14.647Z,5.30
2022-09-04T07:00:54.151Z,9.00
2022-09-04T07:03:36.256Z,5.40
2022-09-04T07:06:12.816Z,3.73
2022-09-04T07:08:55.617Z,3.57
2022-09-04T07:11:39.242Z,5.10
2022-09-04T07:14:35.410Z,4.20
2022-09-04T07:17:12.354Z,3.23
2022-09-04T07:20:09.993Z,5.20
2022-09-04T07:23:03.688Z,4.23
2022-09-04T07:25:42.284Z,6.03
2022-09-04T07:28:24.006Z,4.30
2022-09-04T07:30:58.341Z,4.17
2022-09-04T07:33:36.324Z,3.50
2022-09-04T07:36:14.067Z,3.80
2022-09-04T07:38:51.831Z,2.33
2022-09-04T07:41:31.294Z,4.63
2022-09-04T07:44:06.197Z,3.23
2022-09-04T07:46:43.847Z,3.73
2022-09-04T07:49:20.026Z,3.70
2022-09-04T07:51:58.074Z,2.90
2022-09-04T07:54:46.275Z,3.50
2022-09-04T07:57:45.346Z,3.03
2022-09-04T08:00:17.939Z,2.70
2022-09-04T08:03:21.756Z,2.60
2022-09-04T08:05:55.596Z,4.93
2022-09-04T08:08:58.964Z,2.40
2022-09-04T08:11:47.429Z,3.17
2022-09-04T08:14:26.127Z,2.63
2022-09-04T08:17:16.779Z,2.30
2022-09-04T08:19:52.298Z,2.10
2022-09-04T08:22:30.068Z,3.37
2022-09-04T08:25:24.383Z,2.80
2022-09-04T08:28:17.821Z,2.00
2022-09-04T08:31:03.763Z,2.70
2022-09-04T08:33:52.703Z,2.73
2022-09-04T08:36:32.583Z,1.97
2022-09-04T08:39:08.308Z,3.13
2022-09-04T08:42:05.815Z,2.17
2022-09-04T08:45:27.679Z,5.03
2022-09-04T08:48:42.271Z,3.07
2022-09-04T08:51:36.992Z,2.27
2022-09-04T08:54:31.226Z,1.83
2022-09-04T08:57:25.486Z,3.23
2022-09-04T09:00:09.888Z,3.00
2022-09-04T09:03:18.535Z,1.50
2022-09-04T09:06:16.323Z,1.83
2022-09-04T09:09:25.812Z,1.77
2022-09-04T09:12:40.936Z,1.60
2022-09-04T09:15:49.894Z,1.93
2022-09-04T09:18:35.897Z,3.77
2022-09-04T09:21:10.881Z,2.03
2022-09-04T09:23:45.416Z,1.83
2022-09-04T09:26:26.540Z,2.53
2022-09-04T09:29:20.112Z,1.50
2022-09-04T09:32:35.847Z,1.87
2022-09-04T09:35:38.112Z,1.60
2022-09-04T09:38:48.652Z,1.60
2022-09-04T09:41:53.327Z,2.63
2022-09-04T09:44:51.773Z,1.40
2022-09-04T09:47:57.272Z,1.40
2022-09-04T09:50:54.552Z,1.67
2022-09-04T09:53:52.334Z,1.63
2022-09-04T09:57:06.407Z,1.23
2022-09-04T10:00:05.808Z,1.40
2022-09-04T10:03:13.545Z,1.20
2022-09-04T10:06:12.867Z,1.43
2022-09-04T10:09:12.404Z,1.40
2022-09-04T10:12:12.123Z,1.20
2022-09-04T10:15:32.120Z,1.30
2022-09-04T10:18:33.759Z,1.20
2022-09-04T10:21:40.629Z,1.40
2022-09-04T10:24:36.236Z,1.33
2022-09-04T10:27:28.781Z,1.30
2022-09-04T10:30:13.626Z,1.50
2022-09-04T10:33:11.332Z,1.83
2022-09-04T10:35:55.126Z,1.37
2022-09-04T10:38:38.571Z,1.17
2022-09-04T10:41:35.284Z,1.33
2022-09-04T10:44:27.745Z,1.07
2022-09-04T10:47:07.683Z,1.60
2022-09-04T10:49:53.789Z,1.60
2022-09-04T10:52:40.487Z,1.30
2022-09-04T10:55:21.307Z,1.20
2022-09-04T10:58:13.937Z,1.40
2022-09-04T11:00:53.080Z,1.13
2022-09-04T11:03:44.824Z,1.10
2022-09-04T11:06:49.309Z,1.60
2022-09-04T11:09:34.060Z,1.30
2022-09-04T11:12:18.083Z,1.33
2022-09-04T11:15:18.756Z,1.43
2022-09-04T11:18:19.279Z,2.40
2022-09-04T11:21:16.330Z,1.40
2022-09-04T11:24:20.998Z,1.30
2022-09-04T11:27:26.334Z,1.20
2022-09-04T11:30:03.556Z,0.80
2022-09-04T11:33:00.221Z,1.10
2022-09-04T11:35:59.719Z,1.17
2022-09-04T11:38:51.867Z,1.03
2022-09-04T11:42:03.863Z,1.10
2022-09-04T11:45:16.717Z,1.40
2022-09-04T11:48:29.234Z,1.30
2022-09-04T11:51:39.588Z,1.07
2022-09-04T11:54:28.354Z,1.20
2022-09-04T11:57:13.465Z,1.33
2022-09-04T12:00:07.764Z,1.53
2022-09-04T12:02:58.614Z,0.90
2022-09-04T12:05:45.707Z,1.27
2022-09-04T12:08:41.531Z,1.10
2022-09-04T12:11:56.753Z,1.00
2022-09-04T12:14:39.309Z,1.10
2022-09-04T12:17:30.867Z,0.97
2022-09-04T12:20:24.171Z,1.20
2022-09-04T12:23:11.230Z,1.37
2022-09-04T12:26:19.099Z,1.07
2022-09-04T12:29:35.655Z,1.37
2022-09-04T12:32:35.480Z,1.93
2022-09-04T12:35:34.672Z,1.20
2022-09-04T12:38:47.277Z,1.20
2022-09-04T12:41:18.595Z,2.97
2022-09-04T12:44:05.272Z,1.10
2022-09-04T12:46:50.274Z,1.00
2022-09-04T12:49:40.797Z,0.97
2022-09-04T12:52:19.079Z,1.43
2022-09-04T12:55:01.360Z,1.40
2022-09-04T12:57:41.334Z,1.50
2022-09-04T13:00:12.194Z,1.20
2022-09-04T13:02:51.923Z,1.20
2022-09-04T13:05:35.406Z,1.57
2022-09-04T13:08:23.110Z,1.77
2022-09-04T13:11:05.479Z,1.37
2022-09-04T13:13:42.226Z,1.20
2022-09-04T13:16:18.265Z,1.33
2022-09-04T13:19:00.355Z,1.10
2022-09-04T13:21:43.999Z,1.00
2022-09-04T13:24:26.493Z,1.30
2022-09-04T13:27:07.805Z,1.20
2022-09-04T13:29:54.590Z,1.20
2022-09-04T13:32:35.116Z,1.63
2022-09-04T13:35:19.419Z,1.33
2022-09-04T13:38:03.699Z,1.47
2022-09-04T13:40:48.085Z,2.20
2022-09-04T13:43:42.450Z,1.40
2022-09-04T13:46:15.654Z,1.30
2022-09-04T13:48:45.972Z,1.33
2022-09-04T13:51:19.325Z,2.03
2022-09-04T13:53:59.990Z,1.40
2022-09-04T13:56:35.417Z,1.20
2022-09-04T13:59:09.525Z,5.70
2022-09-04T14:01:46.012Z,1.20
2022-09-04T14:04:19.416Z,2.00
2022-09-04T14:06:48.828Z,1.20
2022-09-04T14:09:17.729Z,1.20
2022-09-04T14:12:13.479Z,1.23
2022-09-04T14:15:17.418Z,1.33
2022-09-04T14:17:56.718Z,1.30
2022-09-04T14:20:30.093Z,2.50
2022-09-04T14:23:07.588Z,1.27
2022-09-04T14:25:44.006Z,1.30
2022-09-04T14:28:20.388Z,1.07
2022-09-04T14:31:10.632Z,2.17
2022-09-04T14:33:49.743Z,1.23
2022-09-04T14:36:29.677Z,1.33
2022-09-04T14:39:16.376Z,1.30
2022-09-04T14:42:09.879Z,2.60
2022-09-04T14:44:51.924Z,1.30
2022-09-04T14:47:37.023Z,2.00
2022-09-04T14:50:09.704Z,1.30
2022-09-04T14:52:42.573Z,1.50
2022-09-04T14:55:16.249Z,1.10
2022-09-04T14:57:51.226Z,1.37
2022-09-04T15:00:22.212Z,1.30
2022-09-04T15:03:02.309Z,1.30
2022-09-04T15:05:35.450Z,1.37
2022-09-04T15:08:06.856Z,1.27
2022-09-04T15:10:49.901Z,1.37
2022-09-04T15:13:40.700Z,1.90
2022-09-04T15:16:30.817Z,1.20
2022-09-04T15:19:06.744Z,1.20
2022-09-04T15:21:43.396Z,1.00
2022-09-04T15:24:18.068Z,1.47
2022-09-04T15:26:55.698Z,1.10
2022-09-04T15:29:28.700Z,1.20
2022-09-04T15:32:01.903Z,1.40
2022-09-04T15:34:32.266Z,1.40
2022-09-04T15:37:19.578Z,1.13
2022-09-04T15:39:58.276Z,1.53
2022-09-04T15:42:37.050Z,1.10
2022-09-04T15:45:15.670Z,1.60
2022-09-04T15:47:58.121Z,1.77
2022-09-04T15:50:31.976Z,1.67
2022-09-04T15:53:14.032Z,1.40
2022-09-04T15:55:48.370Z,2.20
2022-09-04T15:58:21.037Z,1.13
2022-09-04T16:01:11.170Z,1.60
2022-09-04T16:03:53.623Z,1.40
2022-09-04T16:06:29.242Z,1.10
2022-09-04T16:09:03.427Z,1.40
2022-09-04T16:11:37.076Z,1.47
2022-09-04T16:14:08.496Z,1.83
2022-09-04T16:16:45.453Z,1.30
2022-09-04T16:19:27.940Z,1.43
2022-09-04T16:22:06.599Z,1.10
2022-09-04T16:24:41.466Z,1.30
2022-09-04T16:27:14.381Z,1.00
2022-09-04T16:29:47.600Z,1.13
2022-09-04T16:32:22.216Z,1.37
2022-09-04T16:34:53.851Z,1.50
2022-09-04T16:37:30.547Z,1.13
2022-09-04T16:40:13.733Z,1.20
2022-09-04T16:42:50.044Z,1.90
2022-09-04T16:45:22.338Z,1.40
2022-09-04T16:47:59.120Z,1.30
2022-09-04T16:50:42.244Z,1.33
2022-09-04T16:53:17.483Z,1.17
2022-09-04T16:55:56.943Z,1.40
2022-09-04T16:58:40.177Z,1.70
2022-09-04T17:01:16.695Z,1.17
2022-09-04T17:04:13.422Z,1.20
2022-09-04T17:06:54.237Z,1.50
2022-09-04T17:09:29.720Z,1.33
2022-09-04T17:12:03.155Z,1.47
2022-09-04T17:14:37.427Z,1.20
2022-09-04T17:17:30.550Z,1.27
2022-09-04T17:20:06.261Z,0.90
2022-09-04T17:28:56.458Z,1.10
2022-09-04T17:28:58.960Z,1.40
2022-09-04T17:29:08.800Z,1.13
2022-09-04T17:31:45.314Z,1.13
2022-09-04T17:39:52.912Z,1.17
2022-09-04T17:40:48.342Z,1.17
2022-09-04T17:40:53.295Z,1.17
2022-09-04T17:43:26.991Z,1.50
2022-09-04T17:46:06.935Z,1.77
2022-09-04T17:48:41.587Z,1.23
2022-09-04T17:51:18.343Z,1.40
2022-09-04T17:53:51.605Z,1.57
2022-09-04T17:56:27.458Z,1.30
2022-09-04T17:59:01.678Z,1.40
2022-09-04T18:01:35.047Z,1.20
2022-09-04T18:04:22.700Z,1.50
2022-09-04T18:07:28.999Z,1.63
2022-09-04T18:10:04.108Z,1.30
2022-09-04T18:12:38.546Z,1.50
2022-09-04T18:15:34.313Z,1.70
2022-09-04T18:18:11.623Z,1.40
2022-09-04T18:20:45.044Z,1.37
2022-09-04T18:23:33.177Z,1.60
2022-09-04T18:26:38.523Z,2.50
2022-09-04T18:33:28.413Z,1.37
2022-09-04T18:37:11.870Z,1.10
2022-09-04T18:37:27.096Z,1.57
2022-09-04T18:38:20.514Z,1.53
2022-09-04T18:43:34.611Z,1.30
2022-09-04T18:50:29.642Z,1.60
2022-09-04T18:50:30.864Z,1.33
2022-09-04T18:50:47.016Z,2.33
2022-09-04T18:52:20.642Z,1.40
2022-09-04T18:54:54.726Z,1.77
2022-09-04T18:57:33.472Z,1.53
2022-09-04T19:00:11.278Z,1.60
2022-09-04T19:02:53.571Z,1.20
2022-09-04T19:05:32.913Z,1.83
2022-09-04T19:08:21.852Z,1.20
2022-09-04T19:10:55.256Z,1.70
2022-09-04T19:13:28.374Z,1.50
2022-09-04T19:16:02.824Z,1.43
2022-09-04T19:18:41.744Z,2.03
2022-09-04T19:21:21.978Z,1.67
2022-09-04T19:23:56.335Z,1.90
2022-09-04T19:26:35.925Z,1.63
2022-09-04T19:29:15.052Z,1.20
2022-09-04T19:31:50.147Z,1.90
2022-09-04T19:34:21.763Z,1.40
2022-09-04T19:36:59.078Z,3.60
2022-09-04T19:46:01.524Z,1.80
2022-09-04T19:46:05.541Z,1.40
2022-09-04T19:46:16.783Z,1.60
2022-09-04T19:49:45.132Z,1.43
2022-09-04T19:53:33.928Z,1.40
2022-09-04T19:54:38.909Z,2.43
2022-09-04T19:57:32.214Z,3.10
2022-09-04T20:00:42.930Z,2.10
2022-09-04T20:02:59.981Z,1.20
2022-09-04T20:05:31.888Z,1.30
2022-09-04T20:08:08.007Z,3.20
2022-09-04T20:10:44.436Z,1.30
2022-09-04T20:13:23.415Z,1.47
2022-09-04T20:15:57.024Z,2.80
2022-09-04T20:18:31.242Z,1.50
2022-09-04T20:21:09.450Z,1.50
2022-09-04T20:23:46.896Z,1.40
2022-09-04T20:26:22.019Z,2.27
2022-09-04T20:29:08.175Z,4.47
2022-09-04T20:31:49.288Z,1.70
2022-09-04T20:34:26.087Z,1.43
2022-09-04T20:37:13.615Z,1.77
2022-09-04T20:39:47.713Z,2.70
2022-09-04T20:42:23.867Z,1.57
2022-09-04T20:51:11.139Z,2.57
2022-09-04T20:52:45.208Z,2.90
2022-09-04T20:52:53.679Z,2.03
2022-09-04T20:53:46.675Z,1.30
2022-09-04T20:57:21.548Z,1.77
2022-09-04T21:03:11.778Z,2.60
2022-09-04T21:03:17.613Z,1.83
2022-09-04T21:05:38.708Z,1.47
2022-09-04T21:08:15.026Z,1.70
2022-09-04T21:10:53.384Z,2.17
2022-09-04T21:13:30.171Z,3.13
2022-09-04T21:16:12.855Z,1.90
2022-09-04T21:19:27.415Z,1.23
2022-09-04T21:22:02.887Z,1.63
2022-09-04T21:24:55.291Z,1.53
2022-09-04T21:28:07.915Z,1.60
2022-09-04T21:30:54.514Z,1.50
2022-09-04T21:33:36.536Z,1.70
2022-09-04T21:36:26.640Z,1.97
2022-09-04T21:39:33.353Z,2.33
2022-09-04T21:42:22.746Z,1.73
2022-09-04T21:45:18.611Z,2.30
2022-09-04T21:48:03.636Z,1.47
2022-09-04T21:51:02.047Z,1.90
2022-09-04T21:53:58.078Z,2.17
2022-09-04T22:02:29.455Z,9.53
2022-09-04T22:02:40.455Z,1.43
2022-09-04T22:03:22.714Z,1.60
2022-09-04T22:07:19.538Z,2.60
2022-09-04T22:13:27.468Z,3.90
2022-09-04T22:13:33.108Z,2.50
2022-09-04T22:15:07.854Z,1.60
2022-09-04T22:18:03.922Z,1.90
2022-09-04T22:20:53.734Z,3.10
2022-09-04T22:24:04.638Z,1.73
2022-09-04T22:27:15.706Z,1.20
2022-09-04T22:30:03.763Z,1.77
2022-09-04T22:33:23.343Z,1.23
2022-09-04T22:36:29.356Z,1.60
2022-09-04T22:39:33.738Z,2.30
2022-09-04T22:42:25.562Z,5.10
2022-09-04T22:45:17.279Z,2.10
2022-09-04T22:48:00.871Z,1.57
2022-09-04T22:50:49.296Z,2.60
2022-09-04T22:53:46.435Z,1.60
2022-09-04T22:56:23.921Z,1.30
2022-09-04T22:59:26.091Z,3.53
2022-09-04T23:06:54.413Z,1.87
2022-09-04T23:13:47.051Z,1.70
2022-09-04T23:13:56.778Z,1.63
2022-09-04T23:15:48.084Z,1.87
2022-09-04T23:20:45.493Z,1.50
2022-09-04T23:26:36.198Z,4.13
2022-09-04T23:26:46.817Z,2.00
2022-09-04T23:27:55.527Z,2.43
2022-09-04T23:30:27.307Z,2.50
2022-09-04T23:33:39.823Z,1.47
2022-09-04T23:36:36.718Z,2.90
2022-09-04T23:39:40.360Z,2.30
2022-09-04T23:42:29.414Z,3.00
2022-09-04T23:45:29.303Z,2.07
2022-09-04T23:48:19.136Z,1.70
2022-09-04T23:50:54.866Z,2.00
2022-09-04T23:53:33.677Z,3.00
2022-09-04T23:56:20.967Z,3.07
2022-09-04T23:59:22.033Z,2.20
